Weather observations for the past three days for
Sterling Municipal Airport
Metric (Imperial)
Date Time (mdt) Wind (kph) Vis. (km) Weather Sky Cond. Temperature (ºC) Relative Humidity Wind Chill (°C) Heat Index (°C) Pressure Precipitation (cm)
Air Dwpt 6 hour altimeter (cm) sea level (mb) 1 hr 3 hr 6 hr
Max. Min.
04 23:35 Calm 16.09 Fair CLR 20 12 60% 76.12 0.0
04 23:15 Calm 16.09 Fair CLR 21 12 57% 76.12 0.0
04 22:55 Calm 16.09 Fair CLR 22 12 53% 76.12 0.0
04 22:35 Calm 16.09 Fair CLR 19 13 68% 76.12 0.0
04 22:15 SE 6 16.09 Fair CLR 21 13 60% 76.12 0.0
04 21:55 N 6 16.09 Fair CLR 21 13 60% 76.1 0.0
04 21:35 N 7 16.09 Fair CLR 22 12 53% 76.1 0.0
04 21:15 NE 6 16.09 Fair CLR 22 13 57% 76.07 0.0
04 20:55 Calm 16.09 Fair CLR 24 13 50% 25 76.05 0.0
04 20:15 Calm 16.09 Fair CLR 26 11 39% 26 76.02 0.0
04 19:55 E 6 16.09 Fair CLR 27 11 37% 27 76.02 0.0
04 19:35 NE 6 16.09 Fair CLR 30 9 27% 29 76.02 0.0
04 19:15 NE 7 16.09 Fair CLR 31 10 27% 29 76.02 0.0
04 18:55 NE 6 16.09 Fair CLR 32 10 26% 30 76.02 0.0
04 18:35 Calm 16.09 Fair CLR 33 9 23% 31 76.02 0.0
04 18:15 Calm 16.09 Fair CLR 34 7 19% 32 76.02 0.0
04 17:55 N 6 16.09 Fair CLR 35 8 19% 33 76 0.0
04 17:35 Calm 16.09 Fair CLR 35 7 18% 33 76 0.0
04 17:15 Calm 16.09 Fair CLR 35 7 18% 33 76 0.0
04 16:55 Calm 16.09 Fair CLR 35 7 18% 33 76 0.0
04 16:35 SW 11 16.09 Fair CLR 35 8 19% 33 76 0.0
04 16:15 S 11 16.09 Fair CLR 36 7 17% 34 76.02 0.0
04 15:55 S 13 16.09 Fair CLR 36 7 17% 34 76.02 0.0
04 15:35 SE 9 16.09 Fair CLR 36 7 17% 34 76.02 0.0
04 15:15 Calm 16.09 Fair CLR 35 7 18% 33 76.02 0.0
04 14:55 E 11 16.09 Fair CLR 36 7 17% 34 76.02 0.0
04 14:35 Calm 16.09 Fair CLR 35 7 18% 33 76.05 0.0
04 14:15 E 7 16.09 Fair CLR 35 8 19% 33 76.05 0.0
04 13:55 NE 7 16.09 Fair CLR 35 7 18% 33 76.05 0.0
04 13:35 Calm 16.09 Fair CLR 35 7 18% 33 76.05 0.0
04 13:15 NW 9 16.09 Fair CLR 35 8 19% 33 76.07 0.0
04 12:55 NW 19 G 26 16.09 Fair CLR 35 8 19% 33 76.07 0.0
04 12:35 NW 15 16.09 Fair CLR 34 9 21% 32 76.07 0.0
04 12:15 NW 11 16.09 Fair CLR 33 10 24% 31 76.1 0.0
04 11:55 NW 13 16.09 Fair CLR 33 10 24% 31 76.12 0.0
04 11:35 NW 11 16.09 Fair CLR 32 12 29% 31 76.12 0.0
04 11:15 NW 7 16.09 Fair CLR 31 12 31% 30 76.15 0.0
04 10:55 NW 9 16.09 Fair CLR 30 12 33% 29 76.12 0.0
04 10:35 Calm 16.09 Fair CLR 28 13 40% 28 76.12 0.0
04 10:15 Calm 16.09 Fair CLR 27 13 42% 27 76.12 0.0
04 09:55 SW 9 16.09 Fair CLR 26 13 45% 26 76.12 0.0
04 09:35 S 7 16.09 Fair CLR 25 14 51% 26 76.12 0.0
04 09:15 SW 9 16.09 Fair CLR 24 14 54% 25 76.12 0.0
04 08:55 S 6 16.09 Fair CLR 23 15 61% 76.12 0.0
04 08:35 Calm 16.09 Fair CLR 21 15 69% 76.1 0.0
04 08:15 Calm 16.09 Fair CLR 20 15 73% 76.07 0.0
04 07:55 Calm 16.09 Fair CLR 20 13 64% 76.07 0.0
04 07:35 NW 13 16.09 Fair CLR 17 14 83% 76.02 0.0
04 07:15 NW 7 16.09 Fair CLR 16 14 88% 76.02 0.0
04 06:55 W 11 16.09 Fair CLR 15 15 100% 76.02 0.0
04 06:35 W 6 16.09 Fair CLR 16 13 83% 76.02 0.0
04 06:15 NW 7 16.09 Fair CLR 15 13 88% 76 0.0
04 05:55 Calm 16.09 Fair CLR 16 13 83% 76 0.0
04 05:35 Calm 16.09 Fair CLR 16 15 94% 76 0.0
04 05:15 Calm 16.09 Fair CLR 18 12 68% 76 0.0
04 04:55 E 6 16.09 Fair CLR 19 12 64% 76.02 0.0
04 04:35 Calm 16.09 Fair CLR 18 12 68% 76.02 0.0
04 04:15 W 7 16.09 Fair CLR 18 12 68% 76.02 0.0
04 03:55 SW 7 16.09 Fair CLR 20 12 60% 76 0.0
04 03:35 Calm 16.09 Fair CLR 23 11 47% 76 0.0
04 03:15 Calm 16.09 Fair CLR 23 11 47% 76 0.0
04 02:55 W 11 16.09 Fair CLR 21 12 57% 75.97 0.0
04 02:35 Calm 16.09 Fair CLR 22 12 53% 75.97 0.0
04 02:15 Calm 16.09 Fair CLR 22 12 53% 75.97 0.0
04 01:55 Calm 16.09 Fair CLR 22 12 53% 76 0.0
04 01:35 S 6 16.09 Fair CLR 22 13 57% 76 0.0
04 01:15 S 7 16.09 Fair CLR 22 13 57% 76 0.0
04 00:55 SE 6 16.09 Fair CLR 22 13 57% 76.02 0.0
04 00:35 SE 9 16.09 Fair CLR 22 13 57% 76.02 0.0
04 00:15 SE 9 16.09 Fair CLR 23 12 50% 76.02 0.0
03 23:55 SE 17 16.09 Fair CLR 24 12 47% 25 76.02 0.0
03 23:35 E 22 G 33 16.09 Fair CLR 25 12 44% 26 76.02 0.0
03 23:15 E 20 G 35 16.09 Fair CLR 25 12 44% 26 76 0.0
03 22:55 E 15 16.09 Fair CLR 24 10 41% 25 76 0.0
03 22:35 E 9 16.09 Fair CLR 25 10 39% 26 76 0.0
03 22:15 E 15 16.09 Fair CLR 25 10 39% 26 76.02 0.0
03 21:55 E 13 16.09 Fair CLR 25 10 39% 26 76.02 0.0
03 21:35 E 13 16.09 Fair CLR 23 10 44% 76.02 0.0
03 21:15 E 9 16.09 Fair CLR 24 10 41% 25 76.02 0.0
03 20:55 Calm 16.09 Fair CLR 25 10 39% 26 76 0.0
03 20:35 NE 6 16.09 Fair CLR 25 10 39% 26 76 0.0
03 20:15 NE 7 16.09 Fair CLR 26 10 37% 26 75.97 0.0
03 19:55 NE 6 16.09 Fair CLR 27 10 34% 27 75.95 0.0
03 19:35 NE 11 16.09 Fair CLR 27 11 37% 27 75.95 0.0
03 19:15 N 7 16.09 Fair CLR 28 11 35% 27 75.95 0.0
03 18:55 N 7 16.09 Fair CLR 30 10 29% 29 75.95 0.0
03 18:35 N 7 16.09 Fair CLR 31 9 25% 29 75.95 0.0
03 18:15 Calm 16.09 Fair CLR 32 8 22% 30 75.95 0.0
03 17:55 Calm 16.09 Fair CLR 33 6 18% 31 75.95 0.0
03 17:35 Calm 16.09 Fair CLR 33 6 18% 31 75.97 0.0
03 17:15 Calm 16.09 Fair CLR 33 6 18% 31 75.97 0.0
03 16:55 Calm 16.09 Fair CLR 33 7 20% 31 75.97 0.0
03 16:35 SE 9 16.09 Fair CLR 33 7 20% 31 76 0.0
03 16:15 Calm 16.09 Fair CLR 33 8 21% 31 76 0.0
03 15:55 E 11 16.09 Fair CLR 33 10 24% 31 76.02 0.0
03 15:35 E 9 16.09 Fair CLR 33 11 26% 31 76.02 0.0
03 15:15 E 9 16.09 Fair CLR 31 10 27% 29 76.02 0.0
03 14:35 SE 6 16.09 Fair CLR 32 9 24% 30 76.05 0.0
03 14:15 SE 7 16.09 Fair CLR 32 10 26% 30 76.05 0.0
03 13:55 W 9 16.09 Fair CLR 32 8 22% 30 76.05 0.0
03 13:35 W 7 16.09 Fair CLR 32 9 24% 30 76.05 0.0
03 13:15 W 6 16.09 Fair CLR 32 8 22% 30 76.07 0.0
03 12:55 Calm 16.09 Fair CLR 31 10 27% 29 76.07 0.0
03 12:35 S 9 16.09 Fair CLR 31 12 31% 30 76.12 0.0
03 12:15 S 13 16.09 Fair CLR 30 12 33% 29 76.12 0.0
03 11:55 SW 11 16.09 Fair CLR 30 13 35% 29 76.15 0.0
03 11:35 S 7 16.09 Fair CLR 29 13 37% 28 76.15 0.0
03 11:15 S 13 16.09 Fair CLR 29 15 43% 29 76.15 0.0
03 10:55 S 9 16.09 Fair CLR 27 15 48% 27 76.15 0.0
03 10:35 S 9 16.09 NULL NULL 27 13 42% 27 76.15 0.0
03 10:15 S 13 16.09 Fair CLR 26 15 51% 27 76.15 0.0
03 09:55 S 9 16.09 Fair CLR 24 15 57% 25 76.15 0.0
03 09:35 SE 9 16.09 Fair CLR 22 15 65% 76.15 0.0
03 09:15 SE 7 16.09 Fair CLR 22 15 65% 76.15 0.0
03 08:55 SE 9 16.09 Fair CLR 21 15 69% 76.17 0.0
03 08:35 SE 7 16.09 Fair CLR 20 15 73% 76.17 0.0
03 08:15 S 7 16.09 Fair CLR 18 15 83% 76.15 0.0
03 07:55 SE 7 16.09 Fair CLR 17 15 88% 76.12 0.0
03 07:35 S 11 16.09 Fair CLR 16 16 100% 76.12 0.0
03 07:15 S 9 16.09 Fair CLR 15 15 100% 76.12 0.0
03 06:55 SE 7 16.09 Fair CLR 13 13 100% 76.12 0.0
03 06:35 S 7 16.09 Fair CLR 13 13 100% 76.1 0.0
03 06:15 S 7 16.09 Fair CLR 13 13 100% 76.07 0.0
03 05:55 SE 9 16.09 Fair CLR 13 13 100% 76.07 0.0
03 05:35 SE 9 16.09 Fair CLR 13 13 100% 76.05 0.0
03 05:15 S 7 16.09 Fair CLR 13 13 100% 76.05 0.0
03 04:55 S 7 16.09 Fair CLR 14 14 100% 76.05 0.0
03 04:35 SW 6 16.09 Fair CLR 15 15 100% 76.05 0.0
03 04:15 W 9 16.09 Fair CLR 14 14 100% 76.02 0.0
03 03:55 W 7 16.09 Fair CLR 15 15 100% 76.02 0.0
03 03:35 Calm 16.09 Fair CLR 16 14 88% 76 0.0
03 03:15 NW 9 16.09 Fair CLR 16 15 94% 76 0.0
03 02:55 W 13 16.09 Fair CLR 17 14 83% 76 0.0
03 02:35 NE 9 16.09 Fair CLR 17 13 77% 75.95 0.0
03 02:15 NE 6 16.09 Fair CLR 17 13 77% 75.97 0.0
03 01:55 Calm 16.09 Fair CLR 17 14 83% 76.02 0.0
03 01:35 N 6 16.09 Fair CLR 18 13 73% 76.02 0.0
03 01:15 Calm 16.09 Fair CLR 18 13 73% 76.05 0.0
03 00:55 N 7 16.09 Fair CLR 18 12 68% 76.05 0.0
03 00:35 N 9 16.09 Fair CLR 18 13 73% 76.05 0.0
03 00:15 Calm 16.09 Partly Cloudy SCT110 19 13 68% 76.05 0.0
02 23:55 NW 7 16.09 Thunderstorm in Vicinity SCT110 19 13 68% 76.02 0.0
02 23:35 W 13 16.09 Thunderstorm CLR 18 15 83% 76.12 0.0
02 23:15 W 17 16.09 Fair CLR 17 16 94% 76.07 0.0
02 22:55 Calm 16.09 Fair CLR 19 13 68% 76.05 0.0
02 22:35 NE 7 16.09 Fair CLR 20 13 64% 76.02 0.0
02 22:15 NE 6 16.09 Fair CLR 20 13 64% 76.05 0.0
02 21:55 NE 9 16.09 Fair CLR 20 13 64% 76.07 0.0
02 21:35 N 15 16.09 Fair CLR 20 14 69% 76.05 0.0
02 21:15 NW 22 16.09 Fair CLR 20 13 64% 76.05 0.0
02 20:55 NW 28 16.09 Light Rain NULL 20 14 69% 76.05 0.0
02 20:35 W 31 G 39 16.09 Thunderstorm in Vicinity NULL 23 11 47% 76.1 0.0
02 20:15 NW 28 G 44 16.09 Fair CLR 24 11 44% 25 76.02 0.0
02 19:55 NW 9 16.09 Fair CLR 25 14 51% 26 75.95 0.0
02 19:35 N 9 16.09 Fair CLR 27 12 39% 27 75.92 0.0
02 19:15 N 7 16.09 Fair CLR 27 12 39% 27 75.92 0.0
02 18:55 N 6 16.09 Fair CLR 28 13 40% 28 75.92 0.0
02 18:35 N 6 16.09 Fair CLR 30 13 35% 29 75.92 0.0
02 18:15 N 9 16.09 Fair CLR 31 12 31% 30 75.92 0.0
02 17:55 N 9 16.09 Fair CLR 32 12 29% 31 75.92 0.0
02 17:35 N 11 16.09 Fair CLR 32 11 27% 31 75.92 0.0
02 17:15 NE 9 16.09 Fair CLR 32 11 27% 31 75.95 0.0
02 16:55 N 9 16.09 Fair CLR 32 11 27% 31 75.95 0.0
02 16:35 N 7 16.09 Fair CLR 32 11 27% 31 76 0.0
02 16:15 NW 7 16.09 Fair CLR 33 11 26% 31 76 0.0
02 15:55 Calm 16.09 Fair CLR 32 10 26% 30 76.02 0.0
02 15:35 Calm 16.09 Fair CLR 32 10 26% 30 76.02 0.0
02 15:15 N 7 16.09 Fair CLR 32 10 26% 30 76.05 0.0
02 14:55 Calm 16.09 Fair CLR 32 10 26% 30 76.07 0.0
02 14:35 N 9 16.09 Fair CLR 32 11 27% 31 76.07 0.0
02 14:15 N 6 16.09 Fair CLR 32 10 26% 30 76.12 0.0
02 13:55 N 9 16.09 Fair CLR 32 10 26% 30 76.12 0.0
02 13:35 N 9 16.09 Fair CLR 31 10 27% 29 76.12 0.0
02 13:15 N 11 16.09 Fair CLR 32 11 27% 31 76.15 0.0
02 12:55 N 13 16.09 Fair CLR 31 10 27% 29 76.17 0.0
02 12:35 NE 15 16.09 Fair CLR 31 10 27% 29 76.2 0.0
02 12:15 N 6 16.09 Fair CLR 31 9 25% 29 76.23 0.0
02 11:55 N 9 16.09 Fair CLR 31 10 27% 29 76.23 0.0
02 11:35 NW 11 16.09 Fair CLR 30 12 33% 29 76.23 0.0
02 11:15 N 9 16.09 Fair CLR 30 13 35% 29 76.25 0.0
02 10:55 NW 6 16.09 Fair CLR 29 13 37% 28 76.25 0.0
02 10:35 Calm 16.09 Fair CLR 27 15 48% 27 76.28 0.0
02 10:15 Calm 16.09 Fair CLR 27 16 51% 27 76.28 0.0
02 09:55 E 6 16.09 Fair CLR 26 16 54% 27 76.28 0.0
02 09:35 Calm 16.09 Fair CLR 25 14 51% 26 76.28 0.0
02 09:15 Calm 16.09 Fair CLR 23 15 61% 76.28 0.0
02 08:55 Calm 16.09 Fair CLR 21 16 73% 76.28 0.0
02 08:35 Calm 16.09 Fair CLR 20 16 78% 76.28 0.0
02 08:15 Calm 16.09 Fair CLR 18 18 100% 76.28 0.0
02 07:55 Calm 16.09 Fair CLR 18 16 88% 76.28 0.0
02 07:35 Calm 16.09 Fair CLR 16 16 100% 76.28 0.0
02 07:15 Calm 16.09 Fair CLR 16 16 100% 76.25 0.0
02 06:55 Calm 16.09 Fair CLR 15 15 100% 76.25 0.0
02 06:35 W 6 16.09 Fair CLR 15 15 100% 76.23 0.0
02 06:15 W 13 16.09 Fair CLR 13 13 100% 76.2 0.0
02 05:55 Calm 16.09 Fair CLR 15 15 100% 76.17 0.0
02 05:35 SW 7 16.09 Fair CLR 13 13 100% 76.15 0.0
02 05:15 Calm 16.09 Fair CLR 14 14 100% 76.15 0.0
02 04:55 Calm 16.09 Fair CLR 15 15 100% 76.15 0.0
02 04:35 Calm 16.09 Fair CLR 15 15 100% 76.15 0.0
02 04:15 Calm 16.09 Fair CLR 15 15 100% 76.15 0.0
02 03:55 SE 6 16.09 Fair CLR 15 15 100% 76.17 0.0
02 03:35 Calm 16.09 Fair CLR 16 16 100% 76.17 0.0
02 03:15 NW 7 16.09 Fair CLR 16 16 100% 76.17 0.0
02 02:55 W 7 16.09 Fair CLR 17 16 94% 76.17 0.0
02 02:35 Calm 16.09 Fair CLR 16 16 100% 76.2 0.0
02 02:15 SE 6 16.09 Fair CLR 18 15 83% 76.17 0.0
02 01:55 N 7 16.09 Partly Cloudy SCT120 19 15 78% 76.15 0.0
02 01:35 E 6 16.09 Partly Cloudy SCT120 20 14 69% 76.17 0.0
02 01:15 Calm 16.09 Partly Cloudy SCT120 20 14 69% 76.17 0.0
02 00:55 Calm 16.09 Fair CLR 18 15 83% 76.2 0.0
02 00:35 Calm 16.09 Fair CLR 18 14 78% 76.17 0.0
02 00:15 Calm 16.09 Fair CLR 18 14 78% 76.2 0.0
01 23:55 S 13 16.09 Fair CLR 20 12 60% 76.23 0.0
Date Time (mdt) Wind (kph) Vis. (km) Weather Sky Cond. Air Dwpt Max. Min. Relative Humidity Wind Chill (°C) Heat Index (°C) altimeter (cm) sea level (mb) 1 hr 3 hr 6 hr
6 hour
Temperature (ºC) Pressure Precipitation (cm)